Time;durP1;ratioP1;P1;durP2;ratioP2;P2;SDS_P1;SDS_P2;PMS_P1;PMS_P2;Temp;Humidity;BMP_temperature;BMP_pressure;BME280_temperature;BME280_humidity;BME280_pressure;Samples;Min_cycle;Max_cycle;Signal;HPM_P1;HPM_P2
2022/09/25 00:01:30;;;;;;;19.57;9.33;;;14.40;67.60;;;;;;5026674;28;20224;-75
2022/09/25 00:03:58;;;;;;;20.73;9.43;;;14.30;67.30;;;;;;5027769;28;20207;-76
2022/09/25 00:06:28;;;;;;;24.27;9.83;;;14.30;67.30;;;;;;5019913;28;20583;-76
2022/09/25 00:08:57;;;;;;;17.50;8.60;;;14.30;67.20;;;;;;5019865;28;20215;-76
2022/09/25 00:11:28;;;;;;;14.87;8.97;;;14.30;67.10;;;;;;5029727;28;20203;-76
2022/09/25 00:13:57;;;;;;;20.07;9.83;;;14.30;67.10;;;;;;5022739;28;20203;-76
2022/09/25 00:16:29;;;;;;;18.67;9.07;;;14.30;67.90;;;;;;5026591;28;20267;-76
2022/09/25 00:21:44;;;;;;;14.70;8.97;;;14.30;67.10;;;;;;5019837;28;20272;-77
2022/09/25 00:24:13;;;;;;;15.80;9.03;;;14.30;67.00;;;;;;5019066;28;20215;-77
2022/09/25 00:26:43;;;;;;;17.93;8.67;;;14.30;66.90;;;;;;5029243;28;20196;-76
2022/09/25 00:29:16;;;;;;;15.47;8.37;;;14.30;66.90;;;;;;5027605;28;20223;-76
2022/09/25 00:31:46;;;;;;;17.23;8.97;;;14.30;67.00;;;;;;5019333;28;20253;-77
2022/09/25 00:34:14;;;;;;;17.00;9.27;;;14.20;67.00;;;;;;5026838;28;20262;-77
2022/09/25 00:36:42;;;;;;;17.00;9.07;;;14.20;66.90;;;;;;5019334;28;20318;-76
2022/09/25 00:39:11;;;;;;;19.80;9.23;;;14.20;67.00;;;;;;5022254;28;20224;-76
2022/09/25 00:41:39;;;;;;;15.13;8.70;;;14.20;67.20;;;;;;5023921;28;20235;-79
2022/09/25 00:44:51;;;;;;;16.70;8.93;;;14.20;67.40;;;;;;5028537;28;20198;-75
2022/09/25 00:47:26;;;;;;;18.40;9.20;;;14.10;67.40;;;;;;5027274;28;20196;-76
2022/09/25 00:49:56;;;;;;;15.83;8.63;;;14.10;68.20;;;;;;5029144;28;20229;-77
2022/09/25 00:52:26;;;;;;;14.87;8.73;;;14.10;67.50;;;;;;5028398;28;20192;-76
2022/09/25 00:54:58;;;;;;;16.63;8.47;;;14.10;67.70;;;;;;5019261;28;20258;-76
2022/09/25 00:57:30;;;;;;;18.20;8.53;;;14.10;67.80;;;;;;5030580;28;20220;-78
2022/09/25 01:00:02;;;;;;;16.53;8.33;;;14.10;68.00;;;;;;5017035;28;20215;-76
2022/09/25 01:02:35;;;;;;;15.00;8.10;;;14.00;68.10;;;;;;5019437;28;20991;-76
2022/09/25 01:05:07;;;;;;;18.93;9.03;;;14.00;68.30;;;;;;5025254;28;20661;-76
2022/09/25 01:07:39;;;;;;;15.80;8.97;;;14.00;68.30;;;;;;5026107;28;20219;-76
2022/09/25 01:10:09;;;;;;;18.30;8.47;;;14.00;68.40;;;;;;5029775;28;20230;-75
2022/09/25 01:12:42;;;;;;;15.57;9.30;;;14.00;68.50;;;;;;5023052;28;20236;-76
2022/09/25 01:15:12;;;;;;;17.80;8.80;;;13.90;68.60;;;;;;5031090;28;20258;-76
2022/09/25 01:17:50;;;;;;;18.40;9.07;;;14.00;68.80;;;;;;5023074;28;20249;-77
2022/09/25 01:20:36;;;;;;;16.00;8.33;;;13.90;68.80;;;;;;5023125;28;20259;-76
2022/09/25 01:23:17;;;;;;;17.60;8.30;;;13.90;68.90;;;;;;5019062;28;20752;-77
2022/09/25 01:26:00;;;;;;;17.10;8.40;;;13.90;69.10;;;;;;5013578;28;20284;-76
2022/09/25 01:29:01;;;;;;;15.70;8.40;;;13.90;69.10;;;;;;5028220;28;20717;-75
2022/09/25 01:31:41;;;;;;;15.60;8.53;;;13.90;69.20;;;;;;5009539;28;20230;-76
2022/09/25 01:34:17;;;;;;;13.70;8.27;;;13.90;69.30;;;;;;5031398;28;20601;-76
2022/09/25 01:36:53;;;;;;;14.93;8.07;;;13.90;69.50;;;;;;5027208;28;20262;-76
2022/09/25 01:39:25;;;;;;;14.93;8.33;;;13.90;69.60;;;;;;5028555;28;20277;-76
2022/09/25 01:42:01;;;;;;;17.90;8.77;;;13.80;69.70;;;;;;5029924;28;20210;-76
2022/09/25 01:44:33;;;;;;;12.37;7.77;;;13.90;70.00;;;;;;5018497;28;20279;-76
2022/09/25 01:47:08;;;;;;;16.20;8.37;;;13.80;70.00;;;;;;5034480;28;20214;-76
2022/09/25 01:49:39;;;;;;;16.07;7.37;;;13.80;70.10;;;;;;5029470;28;20233;-76
2022/09/25 01:52:13;;;;;;;15.80;8.73;;;13.80;70.20;;;;;;5018764;28;20235;-76
2022/09/25 01:54:45;;;;;;;15.20;7.97;;;13.80;70.30;;;;;;5019677;28;20192;-76
2022/09/25 01:57:19;;;;;;;15.53;8.17;;;13.80;70.50;;;;;;5028913;28;20215;-77
2022/09/25 01:59:54;;;;;;;14.70;6.97;;;13.80;70.70;;;;;;5029173;28;20246;-76
2022/09/25 02:02:26;;;;;;;12.20;7.20;;;13.80;70.80;;;;;;5029904;28;20282;-77
2022/09/25 02:04:59;;;;;;;15.00;8.00;;;13.70;70.80;;;;;;5020504;28;20196;-76
2022/09/25 02:07:34;;;;;;;16.03;7.43;;;13.70;70.90;;;;;;5020029;28;20192;-76
2022/09/25 02:10:08;;;;;;;14.50;7.73;;;13.70;71.00;;;;;;5027969;28;20719;-76
2022/09/25 02:12:40;;;;;;;15.90;8.00;;;13.70;71.30;;;;;;5018533;28;20191;-76
2022/09/25 02:15:14;;;;;;;15.77;7.60;;;13.70;71.30;;;;;;5032630;28;20602;-76
2022/09/25 02:20:40;;;;;;;13.27;7.40;;;13.60;71.40;;;;;;5024363;28;20192;-75
2022/09/25 02:23:17;;;;;;;17.97;8.07;;;13.60;71.40;;;;;;5023147;28;20245;-75
2022/09/25 02:25:49;;;;;;;16.17;7.67;;;13.60;71.60;;;;;;5025044;28;20222;-75
2022/09/25 02:28:18;;;;;;;15.60;8.20;;;13.60;71.70;;;;;;5011118;28;20267;-74
2022/09/25 02:30:49;;;;;;;16.53;7.67;;;13.60;71.70;;;;;;5017858;28;20207;-75
2022/09/25 02:33:17;;;;;;;13.87;7.60;;;13.60;71.90;;;;;;5021854;28;20227;-74
2022/09/25 02:35:46;;;;;;;14.27;7.63;;;13.50;72.00;;;;;;5025909;28;20223;-75
2022/09/25 02:38:15;;;;;;;12.50;7.30;;;13.50;72.20;;;;;;5021923;28;20228;-75
2022/09/25 02:40:50;;;;;;;14.43;7.40;;;13.50;72.20;;;;;;5025423;28;20188;-77
2022/09/25 02:43:30;;;;;;;14.50;7.30;;;13.50;72.30;;;;;;5016347;28;20214;-74
2022/09/25 02:46:12;;;;;;;13.90;7.60;;;13.50;72.40;;;;;;5006947;28;20946;-75
2022/09/25 02:48:50;;;;;;;15.67;7.93;;;13.40;72.40;;;;;;5025275;28;20188;-75
2022/09/25 02:51:27;;;;;;;12.63;6.77;;;13.40;72.40;;;;;;5021912;28;20189;-75
2022/09/25 02:54:04;;;;;;;14.73;7.37;;;13.40;72.40;;;;;;5017090;28;20228;-75
2022/09/25 02:56:37;;;;;;;12.70;6.77;;;13.40;72.50;;;;;;5018907;28;20664;-75
2022/09/25 02:59:08;;;;;;;17.53;8.27;;;13.30;72.50;;;;;;5021411;28;20981;-75
2022/09/25 03:01:41;;;;;;;12.60;6.90;;;13.30;72.50;;;;;;5019434;28;20216;-75
2022/09/25 03:04:11;;;;;;;11.90;7.27;;;13.30;72.50;;;;;;5018876;28;20212;-75
2022/09/25 03:06:40;;;;;;;14.97;7.77;;;13.30;72.60;;;;;;5015384;28;20197;-76
2022/09/25 03:09:09;;;;;;;12.73;7.10;;;13.30;72.80;;;;;;5017837;28;20230;-74
2022/09/25 03:11:40;;;;;;;11.67;7.23;;;13.20;72.80;;;;;;5021954;28;20189;-75
2022/09/25 03:14:08;;;;;;;11.43;6.77;;;13.20;72.90;;;;;;5013709;28;20656;-74
2022/09/25 03:16:44;;;;;;;13.80;6.97;;;13.20;73.00;;;;;;5023080;28;20223;-74
2022/09/25 03:19:13;;;;;;;12.67;7.30;;;13.20;74.00;;;;;;5024492;28;20194;-74
2022/09/25 03:21:42;;;;;;;13.07;7.50;;;13.20;73.20;;;;;;5026137;28;20241;-75
2022/09/25 03:24:10;;;;;;;12.83;6.90;;;13.10;73.20;;;;;;5024650;28;20259;-74
2022/09/25 03:26:39;;;;;;;15.80;7.10;;;13.10;73.20;;;;;;5023733;28;20645;-74
2022/09/25 03:29:08;;;;;;;14.17;7.20;;;13.10;73.30;;;;;;5023819;28;20302;-75
2022/09/25 03:31:38;;;;;;;13.13;6.73;;;13.10;73.50;;;;;;5024157;28;20271;-75
2022/09/25 03:34:06;;;;;;;12.87;6.23;;;13.10;73.50;;;;;;5020834;28;20314;-75
2022/09/25 03:36:35;;;;;;;12.57;5.83;;;13.10;73.50;;;;;;5023096;28;20311;-74
2022/09/25 03:39:04;;;;;;;13.70;7.63;;;13.10;73.60;;;;;;5022648;28;20640;-74
2022/09/25 03:41:34;;;;;;;12.17;5.90;;;13.10;73.70;;;;;;5028121;28;20196;-74
2022/09/25 03:44:04;;;;;;;13.73;6.47;;;13.00;73.80;;;;;;5030276;28;20199;-75
2022/09/25 03:46:34;;;;;;;12.70;7.30;;;13.00;73.80;;;;;;5028024;28;20215;-75
2022/09/25 03:49:04;;;;;;;12.27;6.57;;;13.00;73.90;;;;;;5031221;28;20254;-75
2022/09/25 03:51:34;;;;;;;13.37;6.13;;;13.00;74.10;;;;;;5031000;28;20192;-75
2022/09/25 03:54:02;;;;;;;12.23;6.40;;;13.00;74.10;;;;;;5032821;28;20212;-74
2022/09/25 03:56:31;;;;;;;12.73;7.00;;;12.90;74.10;;;;;;5024335;28;20680;-75
2022/09/25 03:59:00;;;;;;;11.00;6.20;;;12.90;74.10;;;;;;5034939;28;20277;-74
2022/09/25 04:01:28;;;;;;;10.00;5.73;;;12.90;74.10;;;;;;5020811;28;20249;-74
2022/09/25 04:04:00;;;;;;;9.93;6.10;;;12.90;74.10;;;;;;5021204;28;20204;-75
2022/09/25 04:06:29;;;;;;;10.57;5.50;;;12.90;75.00;;;;;;5022397;28;20226;-74
2022/09/25 04:08:58;;;;;;;10.30;5.87;;;12.90;74.30;;;;;;5030482;28;20192;-74
2022/09/25 04:11:26;;;;;;;11.47;5.73;;;12.90;74.30;;;;;;5026554;28;20216;-75
2022/09/25 04:13:55;;;;;;;16.33;6.77;;;12.80;74.40;;;;;;5030746;28;20200;-75
2022/09/25 04:16:24;;;;;;;10.83;5.47;;;12.80;74.40;;;;;;5024099;28;20251;-74
2022/09/25 04:18:53;;;;;;;10.93;6.00;;;12.80;74.40;;;;;;5026360;28;20223;-74
2022/09/25 04:21:21;;;;;;;11.83;5.47;;;12.80;74.60;;;;;;5030592;28;20222;-74
2022/09/25 04:26:33;;;;;;;11.03;5.60;;;12.80;74.70;;;;;;5020540;28;20195;-75
2022/09/25 04:29:02;;;;;;;11.90;6.87;;;12.80;74.80;;;;;;5026302;28;20287;-75
2022/09/25 04:31:32;;;;;;;9.87;6.07;;;12.80;74.90;;;;;;5029846;28;20274;-76
2022/09/25 04:34:01;;;;;;;9.20;5.90;;;12.80;74.90;;;;;;5024101;28;20224;-75
2022/09/25 04:36:29;;;;;;;11.37;6.37;;;12.80;75.30;;;;;;5025123;28;20195;-75
2022/09/25 04:38:59;;;;;;;11.70;5.93;;;12.80;75.40;;;;;;5026234;28;20188;-74
2022/09/25 04:41:27;;;;;;;11.77;6.20;;;12.70;75.50;;;;;;5023960;28;20645;-74
2022/09/25 04:43:55;;;;;;;11.63;6.10;;;12.70;75.50;;;;;;5030380;28;20283;-74
2022/09/25 04:46:23;;;;;;;9.97;5.90;;;12.70;75.70;;;;;;5017492;28;20250;-75
2022/09/25 04:48:52;;;;;;;11.63;5.90;;;12.70;75.90;;;;;;5026886;28;20199;-75
2022/09/25 04:51:20;;;;;;;11.90;6.67;;;12.70;75.90;;;;;;5023665;28;20287;-74
2022/09/25 04:53:49;;;;;;;12.37;6.57;;;12.70;76.00;;;;;;5012751;28;20220;-74
2022/09/25 04:56:18;;;;;;;12.03;6.33;;;12.70;76.20;;;;;;5011744;28;20279;-75
2022/09/25 04:58:48;;;;;;;10.67;6.50;;;12.70;76.20;;;;;;5022106;28;20281;-75
2022/09/25 05:01:18;;;;;;;11.93;5.40;;;12.70;76.50;;;;;;5024114;28;20717;-75
2022/09/25 05:03:48;;;;;;;15.23;6.17;;;12.70;76.60;;;;;;5031110;28;20187;-74
2022/09/25 05:06:17;;;;;;;9.93;5.93;;;12.70;76.60;;;;;;5018762;28;20239;-75
2022/09/25 05:08:48;;;;;;;13.60;5.50;;;12.80;76.90;;;;;;5025842;28;20196;-74
2022/09/25 05:11:17;;;;;;;12.00;6.40;;;12.80;77.50;;;;;;5019509;28;20668;-75
2022/09/25 05:13:50;;;;;;;11.57;6.27;;;12.80;77.40;;;;;;5016186;28;20228;-75
2022/09/25 05:16:18;;;;;;;10.93;6.40;;;12.90;77.40;;;;;;5030979;28;20193;-75
2022/09/25 05:18:47;;;;;;;12.17;5.73;;;12.90;77.80;;;;;;5019879;28;20606;-76
2022/09/25 05:21:15;;;;;;;9.77;5.57;;;12.90;78.00;;;;;;5020022;28;20618;-75
2022/09/25 05:23:44;;;;;;;10.40;5.50;;;13.00;77.80;;;;;;5026947;28;20250;-74
2022/09/25 05:26:12;;;;;;;8.87;5.93;;;13.10;77.90;;;;;;5030743;28;20262;-74
2022/09/25 05:28:42;;;;;;;9.83;5.40;;;13.10;77.80;;;;;;5027158;28;20290;-75
2022/09/25 05:31:10;;;;;;;9.20;5.70;;;13.20;77.80;;;;;;5028849;28;20199;-75
2022/09/25 05:33:38;;;;;;;9.70;6.17;;;13.20;77.90;;;;;;5033519;28;20311;-75
2022/09/25 05:36:08;;;;;;;10.53;5.87;;;13.30;77.90;;;;;;5029347;28;20191;-76
2022/09/25 05:38:38;;;;;;;12.67;5.93;;;13.30;77.70;;;;;;5031536;28;20250;-75
2022/09/25 05:41:08;;;;;;;13.27;5.90;;;13.40;78.00;;;;;;5024229;28;20212;-75
2022/09/25 05:43:40;;;;;;;10.47;6.00;;;13.40;77.80;;;;;;5026716;28;20265;-75
2022/09/25 05:46:10;;;;;;;10.07;5.57;;;13.50;77.70;;;;;;5031631;28;20319;-75
2022/09/25 05:48:39;;;;;;;13.87;6.43;;;13.50;77.60;;;;;;5033879;28;20218;-75
2022/09/25 05:51:07;;;;;;;11.07;6.07;;;13.60;77.50;;;;;;5032294;28;20250;-75
2022/09/25 05:53:36;;;;;;;11.53;5.97;;;13.60;77.70;;;;;;5027625;28;20196;-76
2022/09/25 05:56:06;;;;;;;13.10;6.40;;;13.70;77.90;;;;;;5029757;28;20203;-76
2022/09/25 05:58:35;;;;;;;9.53;6.43;;;13.70;77.80;;;;;;5031704;28;20239;-76
2022/09/25 06:01:05;;;;;;;13.20;6.97;;;13.80;77.90;;;;;;5030108;28;20708;-75
2022/09/25 06:03:35;;;;;;;11.30;6.77;;;13.80;78.00;;;;;;5032925;28;20279;-75
2022/09/25 06:06:04;;;;;;;9.57;5.30;;;13.90;77.90;;;;;;5031178;28;20254;-75
2022/09/25 06:08:34;;;;;;;13.30;6.20;;;14.00;78.10;;;;;;5031482;28;20267;-76
2022/09/25 06:11:04;;;;;;;11.83;6.50;;;14.10;78.20;;;;;;5028984;28;20598;-75
2022/09/25 06:13:33;;;;;;;9.47;6.00;;;14.10;78.00;;;;;;5031332;28;20210;-75
2022/09/25 06:16:02;;;;;;;12.83;6.53;;;14.20;77.90;;;;;;5033362;28;20199;-75
2022/09/25 06:18:32;;;;;;;11.47;5.80;;;14.30;77.80;;;;;;5032385;28;20242;-75
2022/09/25 06:21:04;;;;;;;9.63;5.87;;;14.40;77.70;;;;;;5029332;28;20232;-75
2022/09/25 06:23:32;;;;;;;9.03;5.17;;;14.40;77.30;;;;;;5029834;28;20441;-75
2022/09/25 06:26:01;;;;;;;8.80;5.63;;;14.60;77.10;;;;;;5028567;28;20192;-75
2022/09/25 06:28:30;;;;;;;9.33;5.13;;;14.60;77.00;;;;;;5032033;28;20199;-75
2022/09/25 06:31:00;;;;;;;8.83;5.23;;;14.70;76.90;;;;;;5031866;28;20245;-75
2022/09/25 06:33:29;;;;;;;8.27;5.33;;;14.80;76.60;;;;;;5027711;28;20224;-75
2022/09/25 06:35:59;;;;;;;10.93;5.40;;;14.90;76.50;;;;;;5030672;28;20192;-74
2022/09/25 06:38:32;;;;;;;8.80;5.50;;;14.90;76.30;;;;;;5029620;28;20696;-75
2022/09/25 06:41:00;;;;;;;9.40;5.27;;;15.10;76.20;;;;;;5032069;28;20188;-75
2022/09/25 06:43:29;;;;;;;11.17;4.97;;;15.20;76.00;;;;;;5028846;28;20297;-75
2022/09/25 06:46:01;;;;;;;11.93;5.40;;;15.30;75.70;;;;;;5030708;28;20215;-75
2022/09/25 06:48:30;;;;;;;10.73;5.78;;;15.40;75.40;;;;;;5031671;28;20501;-75
2022/09/25 06:51:00;;;;;;;10.13;5.47;;;15.50;75.20;;;;;;5032231;28;20334;-75
2022/09/25 06:53:30;;;;;;;10.10;5.53;;;15.60;75.10;;;;;;5031942;28;20187;-75
2022/09/25 06:55:59;;;;;;;8.90;4.73;;;15.70;75.00;;;;;;5029753;28;20231;-75
2022/09/25 06:58:30;;;;;;;8.27;4.97;;;15.80;74.60;;;;;;5031770;28;20222;-75
2022/09/25 07:00:58;;;;;;;8.43;5.23;;;15.90;74.30;;;;;;5029040;28;20203;-77
2022/09/25 07:03:44;;;;;;;10.07;5.43;;;16.00;74.20;;;;;;5016199;28;20234;-75
2022/09/25 07:06:14;;;;;;;8.90;4.93;;;16.10;73.80;;;;;;5013830;28;20246;-75
2022/09/25 07:08:46;;;;;;;10.10;5.33;;;16.20;73.10;;;;;;5021821;28;20287;-75
2022/09/25 07:11:17;;;;;;;9.57;5.13;;;16.30;72.80;;;;;;5018033;28;20199;-76
2022/09/25 07:13:45;;;;;;;8.90;5.30;;;16.30;72.60;;;;;;5029795;28;20231;-75
2022/09/25 07:16:17;;;;;;;7.53;4.60;;;16.40;72.50;;;;;;5030441;28;20207;-76
2022/09/25 07:18:46;;;;;;;9.63;5.43;;;16.50;72.30;;;;;;5028670;28;20215;-75
2022/09/25 07:21:17;;;;;;;8.13;4.70;;;16.60;72.10;;;;;;5017838;28;20192;-75
2022/09/25 07:23:48;;;;;;;8.37;5.00;;;16.70;72.10;;;;;;5027364;28;20235;-75
2022/09/25 07:26:20;;;;;;;8.47;4.43;;;16.80;71.60;;;;;;5028317;28;20191;-75
2022/09/25 07:28:53;;;;;;;13.17;4.40;;;16.90;71.30;;;;;;5031634;28;20192;-76
2022/09/25 07:31:24;;;;;;;11.10;5.67;;;17.00;71.10;;;;;;5028341;28;20216;-75
2022/09/25 07:33:53;;;;;;;7.83;4.10;;;17.10;71.00;;;;;;5029110;28;20215;-75
2022/09/25 07:36:21;;;;;;;9.40;4.63;;;17.20;71.50;;;;;;5029355;28;20629;-75
2022/09/25 07:38:52;;;;;;;7.47;4.60;;;17.30;70.10;;;;;;5030728;28;20255;-76
2022/09/25 07:41:22;;;;;;;8.03;4.40;;;17.40;69.50;;;;;;5027729;28;20195;-74
2022/09/25 07:43:52;;;;;;;7.87;4.47;;;17.50;69.50;;;;;;5016575;28;20188;-75
2022/09/25 07:46:43;;;;;;;8.07;4.03;;;17.60;69.60;;;;;;5031283;28;20223;-76
2022/09/25 07:49:12;;;;;;;8.87;4.67;;;17.70;69.50;;;;;;5022285;28;20188;-75
2022/09/25 07:51:40;;;;;;;8.37;4.50;;;17.80;68.90;;;;;;5025216;28;20229;-75
2022/09/25 07:54:10;;;;;;;11.07;5.20;;;17.90;68.70;;;;;;5022856;28;20474;-75
2022/09/25 07:56:38;;;;;;;8.70;4.40;;;18.00;68.10;;;;;;5029182;28;20246;-75
2022/09/25 07:59:06;;;;;;;7.63;4.30;;;18.10;67.80;;;;;;5031631;28;20220;-76
2022/09/25 08:01:35;;;;;;;7.67;4.53;;;18.10;67.60;;;;;;5027774;28;20280;-76
2022/09/25 08:04:10;;;;;;;8.87;4.33;;;18.20;67.70;;;;;;5023003;28;20195;-76
2022/09/25 08:06:39;;;;;;;8.10;3.50;;;18.30;67.70;;;;;;5012438;28;20200;-75
2022/09/25 08:09:10;;;;;;;6.80;3.43;;;18.40;67.50;;;;;;5017003;28;20226;-75
2022/09/25 08:11:39;;;;;;;8.17;3.50;;;18.40;67.20;;;;;;5035312;28;20203;-75
2022/09/25 08:14:07;;;;;;;9.13;3.97;;;18.50;66.60;;;;;;5031574;28;20198;-75
2022/09/25 08:16:35;;;;;;;6.13;3.53;;;18.60;66.30;;;;;;5032995;28;20196;-76
2022/09/25 08:19:04;;;;;;;7.20;3.33;;;18.70;66.20;;;;;;5019608;28;20278;-76
2022/09/25 08:21:46;;;;;;;6.70;4.40;;;18.80;66.30;;;;;;5017855;28;20259;-76
2022/09/25 08:24:22;;;;;;;6.50;3.20;;;18.80;65.70;;;;;;5027839;28;20670;-76
2022/09/25 08:26:50;;;;;;;7.00;3.30;;;18.90;65.00;;;;;;5030128;28;20188;-75
2022/09/25 08:29:19;;;;;;;5.43;3.30;;;19.00;64.70;;;;;;5021187;28;20660;-75
2022/09/25 08:31:50;;;;;;;4.27;2.73;;;19.10;63.90;;;;;;5019686;28;20215;-76
2022/09/25 08:34:21;;;;;;;5.33;3.10;;;19.20;63.90;;;;;;5024924;28;20222;-76
2022/09/25 08:37:10;;;;;;;6.60;2.80;;;19.20;63.50;;;;;;5017863;28;20288;-75
2022/09/25 08:39:40;;;;;;;4.03;2.37;;;19.30;63.60;;;;;;5029773;28;20424;-75
2022/09/25 08:42:18;;;;;;;3.70;2.50;;;19.40;63.20;;;;;;5018637;28;20235;-75
2022/09/25 08:49:00;;;;;;;6.50;3.10;;;19.50;62.80;;;;;;5014732;28;20247;-76
2022/09/25 08:50:38;;;;;;;7.27;2.83;;;19.70;61.80;;;;;;5026596;28;20274;-75
2022/09/25 08:53:10;;;;;;;5.33;3.20;;;19.80;61.30;;;;;;5019259;28;20275;-75
2022/09/25 08:58:42;;;;;;;5.00;2.93;;;19.90;60.20;;;;;;4990676;28;20235;-76
2022/09/25 09:01:13;;;;;;;5.50;2.77;;;20.00;60.10;;;;;;5025668;28;20227;-75
2022/09/25 09:03:48;;;;;;;4.83;2.43;;;20.10;60.20;;;;;;5027462;28;20207;-76
2022/09/25 09:06:18;;;;;;;4.47;2.50;;;20.20;59.20;;;;;;5015140;28;20671;-75
2022/09/25 09:08:52;;;;;;;5.40;2.30;;;20.30;59.00;;;;;;5031526;28;20191;-75
2022/09/25 09:11:25;;;;;;;5.03;2.47;;;20.30;59.10;;;;;;5032448;28;20195;-75
2022/09/25 09:13:58;;;;;;;5.18;2.55;;;20.40;59.00;;;;;;5029710;28;20210;-75
2022/09/25 09:16:34;;;;;;;3.80;2.00;;;20.50;58.30;;;;;;5030768;28;20235;-75
2022/09/25 09:19:05;;;;;;;4.97;2.90;;;20.60;58.10;;;;;;5021383;28;20476;-75
2022/09/25 09:21:35;;;;;;;2.47;2.13;;;20.60;57.30;;;;;;5027833;28;20226;-75
2022/09/25 09:24:09;;;;;;;3.33;2.30;;;20.70;57.10;;;;;;5024195;28;20227;-75
2022/09/25 09:26:51;;;;;;;4.57;2.80;;;20.80;56.90;;;;;;5025398;28;20253;-75
2022/09/25 09:29:30;;;;;;;5.20;1.98;;;20.80;56.50;;;;;;5026441;28;20250;-74
2022/09/25 09:32:20;;;;;;;4.55;2.33;;;20.90;55.50;;;;;;5030405;28;20187;-75
2022/09/25 09:35:02;;;;;;;4.03;2.28;;;21.00;55.60;;;;;;5011909;28;20592;-75
2022/09/25 09:37:44;;;;;;;3.95;2.15;;;21.10;55.60;;;;;;5010806;28;20195;-75
2022/09/25 09:40:31;;;;;;;4.35;2.58;;;21.20;55.90;;;;;;5008930;28;20236;-75
2022/09/25 09:43:14;;;;;;;3.92;2.20;;;21.20;55.80;;;;;;5008682;28;20208;-75
2022/09/25 09:45:48;;;;;;;6.68;2.60;;;21.30;55.70;;;;;;5013535;28;20275;-75
2022/09/25 09:48:25;;;;;;;3.72;2.50;;;21.40;55.40;;;;;;5007363;28;20197;-75
2022/09/25 09:51:01;;;;;;;3.65;2.47;;;21.40;54.90;;;;;;5009973;28;20204;-74
2022/09/25 09:53:59;;;;;;;5.20;2.72;;;21.50;54.80;;;;;;5009832;28;20207;-76
2022/09/25 09:56:31;;;;;;;4.38;3.13;;;21.60;54.80;;;;;;5005953;28;20236;-75
2022/09/25 09:59:03;;;;;;;5.68;2.33;;;21.60;54.70;;;;;;5002121;28;20227;-76
2022/09/25 10:01:36;;;;;;;3.55;2.38;;;21.70;54.70;;;;;;5007750;28;20297;-76
2022/09/25 10:04:11;;;;;;;7.45;2.70;;;21.80;54.60;;;;;;4992951;28;20193;-75
2022/09/25 10:06:44;;;;;;;4.65;2.70;;;21.90;54.70;;;;;;5010854;28;20195;-76
2022/09/25 10:09:15;;;;;;;5.55;2.80;;;21.90;54.40;;;;;;5009930;28;20188;-76
2022/09/25 10:11:45;;;;;;;4.20;2.40;;;22.00;54.40;;;;;;5004387;28;20649;-75
2022/09/25 10:14:20;;;;;;;4.72;2.58;;;22.10;54.50;;;;;;5002754;28;20231;-76
2022/09/25 10:16:50;;;;;;;5.38;2.50;;;22.10;54.50;;;;;;4998731;28;20188;-75
2022/09/25 10:19:21;;;;;;;4.55;2.47;;;22.20;54.30;;;;;;5010098;28;20197;-75
2022/09/25 10:21:53;;;;;;;4.10;2.65;;;22.20;53.70;;;;;;5008670;28;20215;-75
2022/09/25 10:24:51;;;;;;;4.82;2.67;;;22.30;53.30;;;;;;5007114;28;20204;-75
2022/09/25 10:27:25;;;;;;;4.85;2.70;;;22.40;53.10;;;;;;5008851;28;20276;-74
2022/09/25 10:30:06;;;;;;;4.38;2.88;;;22.40;53.70;;;;;;5010909;28;20275;-74
2022/09/25 10:32:41;;;;;;;5.07;3.17;;;22.50;52.70;;;;;;5010113;28;20239;-76
2022/09/25 10:35:15;;;;;;;7.88;3.75;;;22.50;52.20;;;;;;5005394;28;20220;-76
2022/09/25 10:37:44;;;;;;;5.97;2.67;;;22.60;52.40;;;;;;5010048;28;20201;-75
2022/09/25 10:40:25;;;;;;;5.13;3.10;;;22.60;52.00;;;;;;5003093;28;20655;-74
2022/09/25 10:43:16;;;;;;;5.07;3.45;;;22.70;51.80;;;;;;4998980;28;20247;-76
2022/09/25 10:45:47;;;;;;;9.68;2.92;;;22.80;51.80;;;;;;5007265;28;20193;-75
2022/09/25 10:51:20;;;;;;;5.65;2.55;;;22.90;51.70;;;;;;5003227;28;20625;-75
2022/09/25 10:53:49;;;;;;;3.58;2.30;;;22.90;50.70;;;;;;5004475;28;20192;-74
2022/09/25 10:56:21;;;;;;;5.10;2.58;;;22.90;50.40;;;;;;5009380;28;20196;-75
2022/09/25 10:58:55;;;;;;;6.63;2.28;;;23.00;50.50;;;;;;5007123;28;20216;-77
2022/09/25 11:01:32;;;;;;;6.88;2.60;;;23.10;50.30;;;;;;5009202;28;20218;-77
2022/09/25 11:04:03;;;;;;;5.07;2.97;;;23.10;49.90;;;;;;5007701;28;20196;-77
2022/09/25 11:06:34;;;;;;;4.82;2.78;;;23.20;50.20;;;;;;5008512;28;20197;-76
2022/09/25 11:09:07;;;;;;;4.57;2.70;;;23.20;50.30;;;;;;5009028;28;20220;-75
2022/09/25 11:11:38;;;;;;;5.13;2.75;;;23.30;49.80;;;;;;5005080;28;20684;-74
2022/09/25 11:14:18;;;;;;;6.82;2.67;;;23.40;49.50;;;;;;5007857;28;20205;-74
2022/09/25 11:16:53;;;;;;;4.65;2.38;;;23.40;49.50;;;;;;5009178;28;20198;-74
2022/09/25 11:19:29;;;;;;;5.38;2.83;;;23.40;48.70;;;;;;5009941;28;20192;-76
2022/09/25 11:22:06;;;;;;;5.57;2.92;;;23.50;48.90;;;;;;5008746;28;20216;-76
2022/09/25 11:24:49;;;;;;;4.28;2.22;;;23.60;48.80;;;;;;5006033;28;20196;-74
2022/09/25 11:27:23;;;;;;;3.97;2.53;;;23.60;48.90;;;;;;5006735;28;20518;-74
2022/09/25 11:30:02;;;;;;;4.05;2.35;;;23.70;47.60;;;;;;5009305;28;20193;-74
2022/09/25 11:32:39;;;;;;;5.57;2.40;;;23.70;47.40;;;;;;5009269;28;20282;-74
2022/09/25 11:35:33;;;;;;;3.92;2.03;;;23.80;47.40;;;;;;5011260;28;20523;-75
2022/09/25 11:38:11;;;;;;;5.07;3.20;;;23.80;47.30;;;;;;5010194;28;20331;-74
2022/09/25 11:43:45;;;;;;;5.72;2.00;;;23.90;46.60;;;;;;5011100;28;20620;-75
2022/09/25 11:46:21;;;;;;;4.25;2.20;;;24.00;46.20;;;;;;5012818;28;20279;-74
2022/09/25 11:49:00;;;;;;;5.18;2.30;;;24.00;46.10;;;;;;5008806;28;20192;-74
2022/09/25 11:51:46;;;;;;;3.47;1.98;;;24.10;45.50;;;;;;5002794;28;20204;-74
2022/09/25 11:54:24;;;;;;;36.63;18.88;;;24.10;46.00;;;;;;5007710;28;20287;-76
2022/09/25 11:57:06;;;;;;;17.33;9.15;;;24.20;45.80;;;;;;5013273;28;20200;-74
2022/09/25 11:59:46;;;;;;;8.32;4.15;;;24.30;45.50;;;;;;5000930;28;20231;-74
2022/09/25 12:02:27;;;;;;;7.75;2.85;;;24.40;45.50;;;;;;5012319;28;20299;-75
2022/09/25 12:05:36;;;;;;;7.13;3.78;;;24.40;45.20;;;;;;5013417;28;20212;-74
2022/09/25 12:08:18;;;;;;;6.45;3.00;;;24.40;45.20;;;;;;5008971;28;20192;-74
2022/09/25 12:10:55;;;;;;;3.97;2.30;;;24.50;45.60;;;;;;5008062;28;20288;-76
2022/09/25 12:13:37;;;;;;;8.27;5.45;;;24.50;45.40;;;;;;5011735;28;20223;-75
2022/09/25 12:16:13;;;;;;;5.88;2.83;;;24.60;45.80;;;;;;5011480;28;20784;-75
2022/09/25 12:19:17;;;;;;;5.10;2.33;;;24.70;46.10;;;;;;5011657;28;20192;-75
2022/09/25 12:21:53;;;;;;;3.90;2.10;;;24.70;45.40;;;;;;5012184;28;20310;-75
2022/09/25 12:24:34;;;;;;;5.50;2.85;;;24.80;44.60;;;;;;5014738;28;20637;-75
2022/09/25 12:27:11;;;;;;;6.13;3.00;;;24.80;44.80;;;;;;5012505;28;20243;-74
2022/09/25 12:29:50;;;;;;;4.38;2.38;;;24.80;45.00;;;;;;5013990;28;20671;-75
2022/09/25 12:32:37;;;;;;;4.45;2.42;;;24.80;45.00;;;;;;5012408;28;20261;-75
2022/09/25 12:35:20;;;;;;;6.75;2.83;;;24.90;44.50;;;;;;5012811;28;20192;-75
2022/09/25 12:37:54;;;;;;;4.07;2.17;;;24.90;44.30;;;;;;5012576;28;20208;-75
2022/09/25 12:40:29;;;;;;;9.75;2.00;;;24.90;44.50;;;;;;5011179;28;20192;-75
2022/09/25 12:43:01;;;;;;;4.85;2.00;;;24.90;44.10;;;;;;5011871;28;20614;-75
2022/09/25 12:45:34;;;;;;;4.32;2.17;;;24.90;43.90;;;;;;5008532;28;20567;-75
2022/09/25 12:48:11;;;;;;;7.47;3.20;;;25.00;44.30;;;;;;5013870;28;20196;-75
2022/09/25 12:50:45;;;;;;;3.97;1.90;;;25.00;44.40;;;;;;5011744;28;20241;-76
2022/09/25 12:53:25;;;;;;;7.13;2.10;;;25.00;43.90;;;;;;5010495;28;20657;-75
2022/09/25 12:55:59;;;;;;;3.05;1.90;;;25.00;43.10;;;;;;5010657;28;20227;-75
2022/09/25 12:58:41;;;;;;;3.53;1.95;;;25.10;43.50;;;;;;5007794;28;20193;-75
2022/09/25 13:01:16;;;;;;;4.22;2.38;;;25.10;43.40;;;;;;5000138;28;20771;-74
2022/09/25 13:03:51;;;;;;;3.08;1.90;;;25.10;43.00;;;;;;5005272;28;20234;-75
2022/09/25 13:06:28;;;;;;;2.65;1.58;;;25.20;42.40;;;;;;5009095;28;20652;-74
2022/09/25 13:09:04;;;;;;;3.25;1.67;;;25.10;41.80;;;;;;5012012;28;20227;-75
2022/09/25 13:11:39;;;;;;;2.95;1.88;;;25.20;42.00;;;;;;5001482;28;20631;-75
2022/09/25 13:14:26;;;;;;;3.25;1.95;;;25.20;42.20;;;;;;5011971;28;20187;-74
2022/09/25 13:16:55;;;;;;;3.28;1.92;;;25.30;42.60;;;;;;5010820;28;20708;-75
2022/09/25 13:19:25;;;;;;;4.68;2.13;;;25.40;42.80;;;;;;5012050;28;20239;-75
2022/09/25 13:22:01;;;;;;;5.40;1.95;;;25.60;43.10;;;;;;5011646;28;20248;-75
2022/09/25 13:24:43;;;;;;;3.75;1.80;;;25.80;43.20;;;;;;5013942;28;20661;-75
2022/09/25 13:27:21;;;;;;;4.40;1.88;;;26.10;42.60;;;;;;5008553;28;20216;-75
2022/09/25 13:29:56;;;;;;;9.88;3.90;;;26.20;42.20;;;;;;5012086;28;20187;-75
2022/09/25 13:32:27;;;;;;;3.28;1.80;;;26.30;41.50;;;;;;5011725;28;20188;-75
2022/09/25 13:35:06;;;;;;;4.47;2.03;;;26.40;41.20;;;;;;5010634;28;20586;-74